createdAt,value
2022-08-09T00:00:12.100Z,115.89
2022-08-09T00:01:10.693Z,117.77
2022-08-09T00:02:09.018Z,115.32
2022-08-09T00:04:00.621Z,116.29
2022-08-09T00:04:15.340Z,119.11
2022-08-09T00:06:18.917Z,118.10
2022-08-09T00:06:18.957Z,117.35
2022-08-09T00:07:10.791Z,115.25
2022-08-09T00:08:10.085Z,112.98
2022-08-09T00:09:08.698Z,111.55
2022-08-09T00:10:08.837Z,110.81
2022-08-09T00:11:24.816Z,110.22
2022-08-09T00:12:15.422Z,112.30
2022-08-09T00:13:17.512Z,112.07
2022-08-09T00:14:10.375Z,109.43
2022-08-09T00:15:14.570Z,110.22
2022-08-09T00:16:09.606Z,106.15
2022-08-09T00:17:09.725Z,101.14
2022-08-09T00:18:12.499Z,98.10
2022-08-09T00:19:10.388Z,94.71
2022-08-09T00:20:12.174Z,94.07
2022-08-09T00:21:10.215Z,94.57
2022-08-09T00:22:10.345Z,92.26
2022-08-09T00:23:57.632Z,91.26
2022-08-09T00:24:11.705Z,89.40
2022-08-09T00:25:12.821Z,86.79
2022-08-09T00:26:11.356Z,83.75
2022-08-09T00:27:10.988Z,81.46
2022-08-09T00:28:11.126Z,80.98
2022-08-09T00:29:12.592Z,83.16
2022-08-09T00:30:23.709Z,83.16
2022-08-09T00:31:57.622Z,83.91
2022-08-09T00:32:12.847Z,84.77
2022-08-09T00:33:11.753Z,85.99
2022-08-09T00:34:12.074Z,86.43
2022-08-09T00:35:12.012Z,86.89
2022-08-09T00:36:12.164Z,88.17
2022-08-09T00:37:12.309Z,89.30
2022-08-09T00:38:12.412Z,88.83
2022-08-09T00:40:01.971Z,88.45
2022-08-09T00:40:17.260Z,87.89
2022-08-09T00:44:08.233Z,88.45
2022-08-09T00:44:14.505Z,87.71
2022-08-09T00:44:14.998Z,88.26
2022-08-09T00:44:27.508Z,87.25
2022-08-09T00:45:15.775Z,86.70
2022-08-09T00:46:14.521Z,88.54
2022-08-09T00:47:15.366Z,89.69
2022-08-09T00:48:15.453Z,89.59
2022-08-09T00:49:14.760Z,89.21
2022-08-09T00:50:14.492Z,89.40
2022-08-09T00:51:14.002Z,88.92
2022-08-09T00:52:15.996Z,89.02
2022-08-09T00:53:14.729Z,88.54
2022-08-09T00:54:14.328Z,87.80
2022-08-09T00:55:32.887Z,87.25
2022-08-09T00:56:15.612Z,87.61
2022-08-09T00:57:24.816Z,87.61
2022-08-09T00:58:25.421Z,87.71
2022-08-09T00:59:20.211Z,87.71
2022-08-09T01:00:22.011Z,87.25
2022-08-09T01:01:16.434Z,84.68
2022-08-09T01:02:15.318Z,84.25
2022-08-09T01:03:15.539Z,83.58
2022-08-09T01:04:15.636Z,83.58
2022-08-09T01:05:21.982Z,82.67
2022-08-09T01:06:18.381Z,83.41
2022-08-09T01:07:15.984Z,82.02
2022-08-09T01:08:16.187Z,81.38
2022-08-09T01:09:16.377Z,79.67
2022-08-09T01:10:16.505Z,80.13
2022-08-09T01:11:16.515Z,80.05
2022-08-09T01:12:16.599Z,80.05
2022-08-09T01:13:17.022Z,79.67
2022-08-09T01:14:16.956Z,79.51
2022-08-09T01:15:17.653Z,78.25
2022-08-09T01:16:17.126Z,77.81
2022-08-09T01:17:17.911Z,77.96
2022-08-09T01:18:17.366Z,78.10
2022-08-09T01:19:40.233Z,77.02
2022-08-09T01:20:18.608Z,76.32
2022-08-09T01:21:17.725Z,75.42
2022-08-09T01:22:17.975Z,75.01
2022-08-09T01:24:02.324Z,74.74
2022-08-09T01:24:19.122Z,76.32
2022-08-09T01:25:19.041Z,76.04
2022-08-09T01:26:18.387Z,76.81
2022-08-09T01:27:18.653Z,77.52
2022-08-09T01:28:18.584Z,77.81
2022-08-09T01:29:18.733Z,77.96
2022-08-09T01:30:35.408Z,77.59
2022-08-09T01:32:29.101Z,77.23
2022-08-09T01:32:30.994Z,78.03
2022-08-09T01:33:20.219Z,76.60
2022-08-09T01:34:19.342Z,76.74
2022-08-09T01:35:38.047Z,76.81
2022-08-09T01:36:20.562Z,76.39
2022-08-09T01:37:42.818Z,78.03
2022-08-09T01:38:20.851Z,76.60
2022-08-09T01:39:19.970Z,76.53
2022-08-09T01:40:23.338Z,77.16
2022-08-09T01:41:25.991Z,76.88
2022-08-09T01:42:21.253Z,76.95
2022-08-09T01:43:20.391Z,77.23
2022-08-09T01:44:20.511Z,77.16
2022-08-09T01:45:20.650Z,77.38
2022-08-09T01:46:25.068Z,77.23
2022-08-09T01:47:21.909Z,76.74
2022-08-09T01:48:29.502Z,76.67
2022-08-09T01:49:24.333Z,76.39
2022-08-09T01:50:21.289Z,76.25
2022-08-09T01:51:23.003Z,76.18
2022-08-09T01:52:21.500Z,75.62
2022-08-09T01:53:21.679Z,75.35
2022-08-09T01:54:21.728Z,75.01
2022-08-09T01:55:21.877Z,74.48
2022-08-09T01:56:22.052Z,73.30
2022-08-09T01:57:22.077Z,72.79
2022-08-09T01:58:23.938Z,72.35
2022-08-09T01:59:23.029Z,71.05
2022-08-09T02:00:35.501Z,70.33
2022-08-09T02:01:30.443Z,69.92
2022-08-09T02:02:23.773Z,69.05
2022-08-09T02:03:24.015Z,68.71
2022-08-09T02:04:22.945Z,68.43
2022-08-09T02:05:38.170Z,68.60
2022-08-09T02:06:24.193Z,68.32
2022-08-09T02:08:38.531Z,69.05
2022-08-09T02:08:41.186Z,68.15
2022-08-09T02:09:24.557Z,68.60
2022-08-09T02:10:29.919Z,69.40
2022-08-09T02:11:24.762Z,69.45
2022-08-09T02:12:24.895Z,68.43
2022-08-09T02:13:26.076Z,69.57
2022-08-09T02:14:26.642Z,70.10
2022-08-09T02:15:24.434Z,69.40
2022-08-09T02:16:33.803Z,68.71
2022-08-09T02:18:00.625Z,68.71
2022-08-09T02:18:25.605Z,68.04
2022-08-09T02:19:24.729Z,67.43
2022-08-09T02:20:32.502Z,67.32
2022-08-09T02:21:25.973Z,66.31
2022-08-09T02:22:27.387Z,66.52
2022-08-09T02:23:26.202Z,66.05
2022-08-09T02:24:26.879Z,66.26
2022-08-09T02:25:25.593Z,65.94
2022-08-09T02:26:27.319Z,65.53
2022-08-09T02:27:42.997Z,65.02
2022-08-09T02:28:26.821Z,65.79
2022-08-09T02:29:25.981Z,66.95
2022-08-09T02:30:26.501Z,67.05
2022-08-09T02:31:26.201Z,67.60
2022-08-09T02:32:26.488Z,67.38
2022-08-09T02:33:37.998Z,67.87
2022-08-09T02:34:41.719Z,68.32
2022-08-09T02:36:01.604Z,67.43
2022-08-09T02:36:27.839Z,67.54
2022-08-09T02:37:31.610Z,66.89
2022-08-09T02:38:28.877Z,67.05
2022-08-09T02:39:33.372Z,66.89
2022-08-09T02:40:30.446Z,67.00
2022-08-09T02:41:27.481Z,66.20
2022-08-09T02:42:27.677Z,64.97
2022-08-09T02:43:28.697Z,65.17
2022-08-09T02:44:30.408Z,65.07
2022-08-09T02:45:28.816Z,63.97
2022-08-09T02:46:28.491Z,64.07
2022-08-09T02:47:28.178Z,63.87
2022-08-09T02:48:31.020Z,63.05
2022-08-09T02:49:38.932Z,62.25
2022-08-09T02:50:29.569Z,61.47
2022-08-09T02:51:28.637Z,61.52
2022-08-09T02:52:29.805Z,60.27
2022-08-09T02:53:30.135Z,59.76
2022-08-09T02:54:29.015Z,59.29
2022-08-09T02:55:46.642Z,58.99
2022-08-09T02:56:30.249Z,58.01
2022-08-09T02:57:29.391Z,57.69
2022-08-09T02:58:35.517Z,58.05
2022-08-09T02:59:36.274Z,56.79
2022-08-09T03:00:30.789Z,56.14
2022-08-09T03:01:58.675Z,56.10
2022-08-09T03:02:31.368Z,55.24
2022-08-09T03:04:12.612Z,54.81
2022-08-09T03:04:31.461Z,54.99
2022-08-09T03:05:34.187Z,54.56
2022-08-09T03:06:30.488Z,54.35
2022-08-09T03:07:30.601Z,53.92
2022-08-09T03:08:30.741Z,53.78
2022-08-09T03:09:33.535Z,54.10
2022-08-09T03:10:31.054Z,54.95
2022-08-09T03:12:05.874Z,55.39
2022-08-09T03:12:32.351Z,54.92
2022-08-09T03:13:43.400Z,54.31
2022-08-09T03:14:32.478Z,53.99
2022-08-09T03:16:04.562Z,54.31
2022-08-09T03:16:32.732Z,54.59
2022-08-09T03:17:31.862Z,55.13
2022-08-09T03:18:32.018Z,55.43
2022-08-09T03:19:58.790Z,55.84
2022-08-09T03:20:33.293Z,55.72
2022-08-09T03:21:39.473Z,55.80
2022-08-09T03:22:33.652Z,54.31
2022-08-09T03:23:33.654Z,52.76
2022-08-09T03:24:51.896Z,51.37
2022-08-09T03:25:58.200Z,50.50
2022-08-09T03:26:34.000Z,49.65
2022-08-09T03:27:44.619Z,49.33
2022-08-09T03:28:34.229Z,49.13
2022-08-09T03:29:35.585Z,49.27
2022-08-09T03:30:36.757Z,49.48
2022-08-09T03:31:33.620Z,49.77
2022-08-09T03:32:36.937Z,49.89
2022-08-09T03:33:53.519Z,50.13
2022-08-09T03:34:35.147Z,50.28
2022-08-09T03:36:11.522Z,50.25
2022-08-09T03:36:35.478Z,50.47
2022-08-09T03:37:55.605Z,50.68
2022-08-09T03:38:35.546Z,51.40
2022-08-09T03:39:38.066Z,51.43
2022-08-09T03:40:34.788Z,51.05
2022-08-09T03:41:44.755Z,50.47
2022-08-09T03:42:35.987Z,50.38
2022-08-09T03:43:36.465Z,50.25
2022-08-09T03:44:35.265Z,50.25
2022-08-09T03:46:05.422Z,50.31
2022-08-09T03:46:36.789Z,50.59
2022-08-09T03:47:39.817Z,50.38
2022-08-09T03:48:36.129Z,50.56
2022-08-09T03:49:36.033Z,50.01
2022-08-09T03:50:36.284Z,50.28
2022-08-09T03:51:56.443Z,50.47
2022-08-09T03:52:37.210Z,51.30
2022-08-09T03:53:37.090Z,52.07
2022-08-09T03:54:38.459Z,52.43
2022-08-09T03:55:40.939Z,52.70
2022-08-09T03:56:37.825Z,52.97
2022-08-09T03:57:44.782Z,53.34
2022-08-09T03:58:37.906Z,53.07
2022-08-09T03:59:52.885Z,52.60
2022-08-09T04:00:38.234Z,52.86
2022-08-09T04:01:37.289Z,53.27
2022-08-09T04:02:37.549Z,53.68
2022-08-09T04:03:46.112Z,53.47
2022-08-09T04:04:39.067Z,53.65
2022-08-09T04:05:40.536Z,53.30
2022-08-09T04:06:37.904Z,53.03
2022-08-09T04:07:52.537Z,52.83
2022-08-09T04:08:40.122Z,51.75
2022-08-09T04:09:41.750Z,51.65
2022-08-09T04:10:39.425Z,50.77
2022-08-09T04:11:38.574Z,50.25
2022-08-09T04:12:38.661Z,49.65
2022-08-09T04:14:37.179Z,48.81
2022-08-09T04:14:53.861Z,48.42
2022-08-09T04:16:17.269Z,47.81
2022-08-09T04:16:40.199Z,46.50
2022-08-09T04:17:39.521Z,45.64
2022-08-09T04:18:39.464Z,45.05
2022-08-09T04:19:50.768Z,44.47
2022-08-09T04:20:40.651Z,43.82
2022-08-09T04:21:40.224Z,43.87
2022-08-09T04:22:41.102Z,43.50
2022-08-09T04:23:40.110Z,43.82
2022-08-09T04:24:41.201Z,43.68
2022-08-09T04:25:40.271Z,43.73
2022-08-09T04:26:40.434Z,44.10
2022-08-09T04:27:40.557Z,44.38
2022-08-09T04:28:42.315Z,44.38
2022-08-09T04:29:49.517Z,44.33
2022-08-09T04:30:44.855Z,44.14
2022-08-09T04:31:47.250Z,43.82
2022-08-09T04:32:46.645Z,43.91
2022-08-09T04:33:53.082Z,43.32
2022-08-09T04:34:47.705Z,43.10
2022-08-09T04:35:42.532Z,43.10
2022-08-09T04:36:50.226Z,43.14
2022-08-09T04:37:46.231Z,43.77
2022-08-09T04:38:41.868Z,43.73
2022-08-09T04:39:42.151Z,43.96
2022-08-09T04:40:43.154Z,43.77
2022-08-09T04:41:43.733Z,43.82
2022-08-09T04:42:42.434Z,44.00
2022-08-09T04:43:46.541Z,44.00
2022-08-09T04:44:49.332Z,44.10
2022-08-09T04:45:53.968Z,44.28
2022-08-09T04:46:58.734Z,44.71
2022-08-09T04:47:59.189Z,45.19
2022-08-09T04:48:50.505Z,45.24
2022-08-09T04:49:55.020Z,45.89
2022-08-09T04:50:44.503Z,46.66
2022-08-09T04:51:43.521Z,46.97
2022-08-09T04:52:43.661Z,47.03
2022-08-09T04:53:43.757Z,47.24
2022-08-09T04:54:43.935Z,46.94
2022-08-09T04:55:58.857Z,46.35
2022-08-09T04:56:45.188Z,46.40
2022-08-09T04:57:54.346Z,46.45
2022-08-09T04:58:45.413Z,46.35
2022-08-09T04:59:44.546Z,45.99
2022-08-09T05:00:45.700Z,45.39
2022-08-09T05:01:44.789Z,44.76
2022-08-09T05:02:48.759Z,43.50
2022-08-09T05:03:46.109Z,42.74
2022-08-09T05:04:45.122Z,42.22
2022-08-09T05:05:51.988Z,42.05
2022-08-09T05:06:46.461Z,41.89
2022-08-09T05:07:46.429Z,41.84
2022-08-09T05:08:48.044Z,41.59
2022-08-09T05:09:49.906Z,42.05
2022-08-09T05:10:45.830Z,42.66
2022-08-09T05:11:45.948Z,42.92
2022-08-09T05:12:46.150Z,43.68
2022-08-09T05:13:46.198Z,44.14
2022-08-09T05:14:46.320Z,44.19
2022-08-09T05:15:47.967Z,44.81
2022-08-09T05:16:58.919Z,44.24
2022-08-09T05:18:42.604Z,44.19
2022-08-09T05:18:58.309Z,44.57
2022-08-09T05:19:47.888Z,45.00
2022-08-09T05:20:48.019Z,45.54
2022-08-09T05:21:55.739Z,45.84
2022-08-09T05:23:55.492Z,46.45
2022-08-09T05:24:00.973Z,46.66
2022-08-09T05:24:48.492Z,46.61
2022-08-09T05:25:50.875Z,46.92
2022-08-09T05:26:47.923Z,47.72
2022-08-09T05:27:48.173Z,48.50
2022-08-09T05:28:47.957Z,49.36
2022-08-09T05:29:48.096Z,49.33
2022-08-09T05:30:48.267Z,49.57
2022-08-09T05:31:56.443Z,50.59
2022-08-09T05:32:50.770Z,50.47
2022-08-09T05:33:48.595Z,51.18
2022-08-09T05:34:48.732Z,52.30
2022-08-09T05:35:50.798Z,53.41
2022-08-09T05:36:49.113Z,54.99
2022-08-09T05:37:50.302Z,56.29
2022-08-09T05:38:49.186Z,56.79
2022-08-09T05:39:49.324Z,57.57
2022-08-09T05:40:50.570Z,58.91
2022-08-09T05:41:49.584Z,60.76
2022-08-09T05:42:49.625Z,61.84
2022-08-09T05:43:49.775Z,63.29
2022-08-09T05:44:50.932Z,64.17
2022-08-09T05:45:55.825Z,65.79
2022-08-09T05:46:51.166Z,66.84
2022-08-09T05:47:52.503Z,68.32
2022-08-09T05:48:58.857Z,66.63
2022-08-09T05:50:25.685Z,67.60
2022-08-09T05:51:12.014Z,68.71
2022-08-09T05:51:51.753Z,70.63
2022-08-09T05:52:53.409Z,72.41
2022-08-09T05:53:56.665Z,75.28
2022-08-09T05:54:52.173Z,78.10
2022-08-09T05:55:51.281Z,79.97
2022-08-09T05:56:54.662Z,82.42
2022-08-09T05:57:56.420Z,82.58
2022-08-09T05:58:56.132Z,81.06
2022-08-09T05:59:52.800Z,82.10
2022-08-09T06:00:51.940Z,82.67
2022-08-09T06:01:52.062Z,84.00
2022-08-09T06:02:54.071Z,84.42
2022-08-09T06:03:58.538Z,86.26
2022-08-09T06:04:53.400Z,85.72
2022-08-09T06:06:04.739Z,87.52
2022-08-09T06:06:53.619Z,90.07
2022-08-09T06:08:05.348Z,94.03
2022-08-09T06:08:53.969Z,95.00
2022-08-09T06:09:55.030Z,96.63
2022-08-09T06:10:54.130Z,99.86
2022-08-09T06:11:57.356Z,101.20
2022-08-09T06:13:02.784Z,101.32
2022-08-09T06:13:54.568Z,101.63
2022-08-09T06:14:53.661Z,102.25
2022-08-09T06:15:53.781Z,106.02
2022-08-09T06:16:53.918Z,109.00
2022-08-09T06:17:54.029Z,111.85
2022-08-09T06:18:54.308Z,115.09
2022-08-09T06:19:54.247Z,116.94
2022-08-09T06:20:57.325Z,120.05
2022-08-09T06:21:58.412Z,122.79
2022-08-09T06:22:54.601Z,120.84
2022-08-09T06:24:01.161Z,121.19
2022-08-09T06:24:56.017Z,122.25
2022-08-09T06:26:00.208Z,125.56
2022-08-09T06:26:55.125Z,128.17
2022-08-09T06:27:55.266Z,127.68
2022-08-09T06:29:00.944Z,128.86
2022-08-09T06:30:04.483Z,129.66
2022-08-09T06:30:56.614Z,129.46
2022-08-09T06:32:09.056Z,127.29
2022-08-09T06:33:00.365Z,131.29
2022-08-09T06:33:57.188Z,133.07
2022-08-09T06:34:56.048Z,133.50
2022-08-09T06:35:58.252Z,136.11
2022-08-09T06:36:57.224Z,137.57
2022-08-09T06:38:05.869Z,139.41
2022-08-09T06:38:57.701Z,136.90
2022-08-09T06:39:59.730Z,139.29
2022-08-09T06:40:56.825Z,137.23
2022-08-09T06:42:08.868Z,140.59
2022-08-09T06:42:58.049Z,145.36
2022-08-09T06:43:57.223Z,146.77
2022-08-09T06:44:57.549Z,150.07
2022-08-09T06:46:06.337Z,150.34
2022-08-09T06:46:58.541Z,150.47
2022-08-09T06:47:58.002Z,151.02
2022-08-09T06:49:00.192Z,153.80
2022-08-09T06:50:13.449Z,158.32
2022-08-09T06:50:59.128Z,161.23
2022-08-09T06:51:58.153Z,161.23
2022-08-09T06:52:58.294Z,161.70
2022-08-09T06:54:01.024Z,159.69
2022-08-09T06:54:58.608Z,154.51
2022-08-09T06:55:58.636Z,155.96
2022-08-09T06:56:58.746Z,155.96
2022-08-09T06:58:01.524Z,157.58
2022-08-09T07:00:50.759Z,163.28
2022-08-09T07:00:52.111Z,154.66
2022-08-09T07:01:00.490Z,164.25
2022-08-09T07:02:04.555Z,159.99
2022-08-09T07:03:00.473Z,159.99
2022-08-09T07:04:03.695Z,160.46
2022-08-09T07:04:59.829Z,167.04
2022-08-09T07:06:03.625Z,166.54
2022-08-09T07:07:01.020Z,168.05
2022-08-09T07:08:01.930Z,174.92
2022-08-09T07:09:00.262Z,176.59
2022-08-09T07:10:17.917Z,181.78
2022-08-09T07:11:01.622Z,182.98
2022-08-09T07:12:00.713Z,182.18
2022-08-09T07:13:18.717Z,184.19
2022-08-09T07:14:05.516Z,185.83
2022-08-09T07:15:53.121Z,187.00
2022-08-09T07:16:41.285Z,189.81
2022-08-09T07:17:02.362Z,190.58
2022-08-09T07:18:03.097Z,191.25
2022-08-09T07:19:01.483Z,196.87
2022-08-09T07:20:01.652Z,199.14
2022-08-09T07:21:01.863Z,204.99
2022-08-09T07:22:02.036Z,205.89
2022-08-09T07:23:02.020Z,204.48
2022-08-09T07:24:03.144Z,204.86
2022-08-09T07:25:02.261Z,201.84
2022-08-09T07:26:02.986Z,204.10
2022-08-09T07:27:02.581Z,206.15
2022-08-09T07:28:04.240Z,202.83
2022-08-09T07:29:12.203Z,205.76
2022-08-09T07:30:03.939Z,203.84
2022-08-09T07:31:03.051Z,202.96
2022-08-09T07:32:03.164Z,207.71
2022-08-09T07:33:10.358Z,212.56
2022-08-09T07:34:04.583Z,213.25
2022-08-09T07:35:08.218Z,215.91
2022-08-09T07:36:04.709Z,214.22
2022-08-09T07:37:03.833Z,213.94
2022-08-09T07:38:03.952Z,213.80
2022-08-09T07:39:04.092Z,218.94
2022-08-09T07:40:05.333Z,224.33
2022-08-09T07:41:13.154Z,225.41
2022-08-09T07:42:05.441Z,234.26
2022-08-09T07:43:14.832Z,228.71
2022-08-09T07:44:05.690Z,238.00
2022-08-09T07:45:14.951Z,248.26
2022-08-09T07:46:05.983Z,257.62
2022-08-09T07:47:05.120Z,260.48
2022-08-09T07:48:05.441Z,264.05
2022-08-09T07:49:05.299Z,266.19
2022-08-09T07:50:08.571Z,272.15
2022-08-09T07:52:02.701Z,284.66
2022-08-09T07:52:17.024Z,289.94
2022-08-09T07:53:07.050Z,295.16
2022-08-09T07:54:07.376Z,308.48
2022-08-09T07:55:09.113Z,305.32
2022-08-09T07:56:06.744Z,321.16
2022-08-09T07:57:11.747Z,325.62
2022-08-09T07:58:13.201Z,325.30
2022-08-09T07:59:15.784Z,330.21
2022-08-09T08:00:08.954Z,328.56
2022-08-09T08:01:11.086Z,326.92
2022-08-09T08:02:07.343Z,318.98
2022-08-09T08:03:08.419Z,315.90
2022-08-09T08:04:10.573Z,318.98
2022-08-09T08:05:18.884Z,324.34
2022-08-09T08:06:08.498Z,325.30
2022-08-09T08:07:09.302Z,328.89
2022-08-09T08:09:01.720Z,337.69
2022-08-09T08:09:34.417Z,342.27
2022-08-09T08:10:10.757Z,339.08
2022-08-09T08:12:09.917Z,342.98
2022-08-09T08:12:27.440Z,346.97
2022-08-09T08:13:10.278Z,344.79
2022-08-09T08:14:08.890Z,339.43
2022-08-09T08:15:08.593Z,344.42
2022-08-09T08:16:09.331Z,339.08
2022-08-09T08:17:12.099Z,332.22
2022-08-09T08:18:10.088Z,324.34
2022-08-09T08:19:09.063Z,310.23
2022-08-09T08:20:12.884Z,306.18
2022-08-09T08:21:09.270Z,303.91
2022-08-09T08:22:09.406Z,300.84
2022-08-09T08:23:16.703Z,319.60
2022-08-09T08:24:11.518Z,337.69
2022-08-09T08:25:13.516Z,347.71
2022-08-09T08:26:11.509Z,357.95
2022-08-09T08:27:16.491Z,348.82
2022-08-09T08:28:11.106Z,338.04
2022-08-09T08:29:10.196Z,333.57
2022-08-09T08:30:11.042Z,346.97
2022-08-09T08:31:14.867Z,365.93
2022-08-09T08:32:12.399Z,372.16
2022-08-09T08:33:11.912Z,381.27
2022-08-09T08:34:11.816Z,388.37
2022-08-09T08:35:11.025Z,396.69
2022-08-09T08:36:12.344Z,405.62
2022-08-09T08:37:15.645Z,396.92
2022-08-09T08:38:11.896Z,407.10
2022-08-09T08:39:11.500Z,438.42
2022-08-09T08:40:11.578Z,446.64
2022-08-09T08:41:11.767Z,454.25
2022-08-09T08:42:11.961Z,460.52
2022-08-09T08:43:13.738Z,474.61
2022-08-09T08:44:13.713Z,482.86
2022-08-09T08:45:13.832Z,484.62
2022-08-09T08:46:33.654Z,489.96
2022-08-09T08:47:13.556Z,481.82
2022-08-09T08:48:19.348Z,472.93
2022-08-09T08:49:19.162Z,489.24
2022-08-09T08:50:13.815Z,495.42
2022-08-09T08:51:12.954Z,496.52
2022-08-09T08:52:24.409Z,501.00
2022-08-09T08:53:16.118Z,493.58
2022-08-09T08:54:20.522Z,490.68
2022-08-09T08:55:15.274Z,506.71
2022-08-09T08:56:24.944Z,503.65
2022-08-09T08:57:14.663Z,491.40
2022-08-09T08:58:13.943Z,510.20
2022-08-09T08:59:19.088Z,504.79
2022-08-09T09:00:20.975Z,514.93
2022-08-09T09:01:20.784Z,546.58
2022-08-09T09:02:30.664Z,563.20
2022-08-09T09:03:20.813Z,551.56
2022-08-09T09:04:15.573Z,568.97
2022-08-09T09:05:16.522Z,566.55
2022-08-09T09:06:21.013Z,563.20
2022-08-09T09:07:14.955Z,567.03
2022-08-09T09:08:31.124Z,552.47
2022-08-09T09:09:20.985Z,564.63
2022-08-09T09:10:16.337Z,575.85
2022-08-09T09:11:19.262Z,583.41
2022-08-09T09:12:16.635Z,596.98
2022-08-09T09:13:15.755Z,602.38
2022-08-09T09:14:15.918Z,613.46
2022-08-09T09:15:28.607Z,613.46
2022-08-09T09:16:17.003Z,598.59
2022-08-09T09:17:16.481Z,611.21
2022-08-09T09:18:16.421Z,621.47
2022-08-09T09:19:39.356Z,606.21
2022-08-09T09:20:17.512Z,606.21
2022-08-09T09:21:16.680Z,609.54
2022-08-09T09:22:23.831Z,611.21
2022-08-09T09:23:18.061Z,613.46
2022-08-09T09:24:21.833Z,602.38
2022-08-09T09:26:03.411Z,590.12
2022-08-09T09:26:18.470Z,596.98
2022-08-09T09:28:03.145Z,631.47
2022-08-09T09:28:39.106Z,643.66
2022-08-09T09:29:19.035Z,653.76
2022-08-09T09:30:38.260Z,652.48
2022-08-09T09:32:07.103Z,654.40
2022-08-09T09:32:19.175Z,640.57
2022-08-09T09:33:19.282Z,648.67
2022-08-09T09:34:18.838Z,646.16
2022-08-09T09:35:18.448Z,652.48
2022-08-09T09:36:20.343Z,643.66
2022-08-09T09:37:18.712Z,657.63
2022-08-09T09:38:36.465Z,674.25
2022-08-09T09:39:20.138Z,678.36
2022-08-09T09:40:19.097Z,660.89
2022-08-09T09:41:19.207Z,668.17
2022-08-09T09:42:19.326Z,686.75
2022-08-09T09:43:19.567Z,696.07
2022-08-09T09:44:25.870Z,688.17
2022-08-09T09:45:25.785Z,689.59
2022-08-09T09:47:21.304Z,684.63
2022-08-09T09:48:20.077Z,672.21
2022-08-09T09:49:32.060Z,679.75
2022-08-09T09:50:23.204Z,681.14
2022-08-09T09:51:26.105Z,690.30
2022-08-09T09:52:36.450Z,704.90
2022-08-09T09:53:21.675Z,698.99
2022-08-09T09:54:21.865Z,712.43
2022-08-09T09:55:32.340Z,725.61
2022-08-09T09:56:31.397Z,726.40
2022-08-09T09:58:00.499Z,731.18
2022-08-09T09:58:24.449Z,739.28
2022-08-09T09:59:21.475Z,732.78
2022-08-09T10:00:22.056Z,748.74
2022-08-09T10:01:30.993Z,753.39
2022-08-09T10:02:22.825Z,742.58
2022-08-09T10:03:22.287Z,751.27
2022-08-09T10:04:22.918Z,745.90
2022-08-09T10:05:27.191Z,740.10
2022-08-09T10:06:23.312Z,736.02
2022-08-09T10:07:24.020Z,731.18
2022-08-09T10:08:27.429Z,736.02
2022-08-09T10:09:23.993Z,731.98
2022-08-09T10:10:22.833Z,728.78
2022-08-09T10:11:54.016Z,751.27
2022-08-09T10:12:28.567Z,738.46
2022-08-09T10:13:42.788Z,750.42
2022-08-09T10:14:30.810Z,743.40
2022-08-09T10:15:51.149Z,758.52
2022-08-09T10:16:57.864Z,759.82
2022-08-09T10:17:51.489Z,765.92
2022-08-09T10:18:24.781Z,769.45
2022-08-09T10:19:23.903Z,765.48
2022-08-09T10:20:31.804Z,755.95
2022-08-09T10:21:25.131Z,757.23
2022-08-09T10:22:29.576Z,745.06
2022-08-09T10:23:28.175Z,752.11
2022-08-09T10:24:25.567Z,739.28
2022-08-09T10:25:25.768Z,747.90
2022-08-09T10:26:26.809Z,748.32
2022-08-09T10:27:34.699Z,762.42
2022-08-09T10:28:26.055Z,755.09
2022-08-09T10:30:22.147Z,765.48
2022-08-09T10:32:20.920Z,782.53
2022-08-09T10:32:39.977Z,761.12
2022-08-09T10:34:07.934Z,757.66
2022-08-09T10:34:33.582Z,769.45
2022-08-09T10:35:26.939Z,773.46
2022-08-09T10:36:26.137Z,774.81
2022-08-09T10:37:26.119Z,769.90
2022-08-09T10:38:33.787Z,779.79
2022-08-09T10:39:28.701Z,797.01
2022-08-09T10:40:34.765Z,781.16
2022-08-09T10:41:27.953Z,789.94
2022-08-09T10:42:26.900Z,800.84
2022-08-09T10:43:26.857Z,815.52
2022-08-09T10:44:27.956Z,817.01
2022-08-09T10:45:31.836Z,814.52
2022-08-09T10:46:28.337Z,818.52
2022-08-09T10:48:20.439Z,819.02
2022-08-09T10:48:31.041Z,807.13
2022-08-09T10:49:50.922Z,818.01
2022-08-09T10:50:31.395Z,819.52
2022-08-09T10:51:29.797Z,819.52
2022-08-09T10:52:29.063Z,818.52
2022-08-09T10:53:28.074Z,806.65
2022-08-09T10:54:28.212Z,798.45
2022-08-09T10:55:28.365Z,794.17
2022-08-09T10:56:28.525Z,795.12
2022-08-09T10:57:28.642Z,808.60
2022-08-09T10:58:28.861Z,799.88
2022-08-09T10:59:31.071Z,826.62
2022-08-09T11:00:29.006Z,825.09
2022-08-09T11:03:11.956Z,829.19
2022-08-09T11:03:27.339Z,843.87
2022-08-09T11:03:50.120Z,847.62
2022-08-09T11:04:32.536Z,861.29
2022-08-09T11:05:31.087Z,868.58
2022-08-09T11:06:29.760Z,862.40
2022-08-09T11:07:57.832Z,846.01
2022-08-09T11:08:33.240Z,866.88
2022-08-09T11:09:32.520Z,879.45
2022-08-09T11:10:30.208Z,884.10
2022-08-09T11:11:30.358Z,884.69
2022-08-09T11:12:30.597Z,873.12
2022-08-09T11:13:54.133Z,880.03
2022-08-09T11:14:32.247Z,897.78
2022-08-09T11:15:34.164Z,898.99
2022-08-09T11:16:35.730Z,885.86
2022-08-09T11:17:31.308Z,880.61
2022-08-09T11:18:31.447Z,880.61
2022-08-09T11:20:12.109Z,854.67
2022-08-09T11:20:32.556Z,840.15
2022-08-09T11:21:31.683Z,843.34
2022-08-09T11:22:31.807Z,847.08
2022-08-09T11:23:31.981Z,867.45
2022-08-09T11:24:32.005Z,852.49
2022-08-09T11:25:44.834Z,864.64
2022-08-09T11:26:33.306Z,877.14
2022-08-09T11:28:03.942Z,889.41
2022-08-09T11:28:33.801Z,895.37
2022-08-09T11:30:04.512Z,849.78
2022-08-09T11:30:34.664Z,878.87
2022-08-09T11:31:34.221Z,885.28
2022-08-09T11:32:33.329Z,902.64
2022-08-09T11:33:33.163Z,908.16
2022-08-09T11:34:33.378Z,910.64
2022-08-09T11:35:35.177Z,900.20
2022-08-09T11:36:35.919Z,900.20
2022-08-09T11:37:40.807Z,897.78
2022-08-09T11:38:35.108Z,885.86
2022-08-09T11:39:38.602Z,892.98
2022-08-09T11:40:34.062Z,879.45
2022-08-09T11:41:37.692Z,869.71
2022-08-09T11:42:35.291Z,870.27
2022-08-09T11:43:34.391Z,882.94
2022-08-09T11:44:34.561Z,885.86
2022-08-09T11:45:42.560Z,885.86
2022-08-09T11:46:35.803Z,873.69
2022-08-09T11:47:35.228Z,880.03
2022-08-09T11:48:35.914Z,886.45
2022-08-09T11:49:42.827Z,883.52
2022-08-09T11:50:55.533Z,877.71
2022-08-09T11:53:02.417Z,883.52
2022-08-09T11:53:15.906Z,894.77
2022-08-09T11:54:01.274Z,859.63
2022-08-09T11:54:36.771Z,859.07
2022-08-09T11:55:53.569Z,878.29
2022-08-09T11:56:42.761Z,887.04
2022-08-09T11:58:00.662Z,890.00
2022-08-09T11:58:37.254Z,873.12
2022-08-09T11:59:36.357Z,867.45
2022-08-09T12:00:36.548Z,885.86
2022-08-09T12:02:15.894Z,888.22
2022-08-09T12:02:39.670Z,907.54
2022-08-09T12:03:54.896Z,908.78
2022-08-09T12:04:38.298Z,897.18
2022-08-09T12:05:39.566Z,907.54
2022-08-09T12:06:37.257Z,903.25
2022-08-09T12:07:42.305Z,887.04
2022-08-09T12:08:38.567Z,870.84
2022-08-09T12:09:37.606Z,905.70
2022-08-09T12:10:39.850Z,920.05
2022-08-09T12:12:02.407Z,923.24
2022-08-09T12:12:39.154Z,928.37
2022-08-09T12:14:10.790Z,946.81
2022-08-09T12:14:58.977Z,966.69
2022-08-09T12:15:50.404Z,968.09
2022-08-09T12:16:39.938Z,940.14
2022-08-09T12:17:43.567Z,950.85
2022-08-09T12:18:39.716Z,936.18
2022-08-09T12:19:40.059Z,913.76
2022-08-09T12:20:38.954Z,910.64
2022-08-09T12:21:48.810Z,943.46
2022-08-09T12:22:40.204Z,941.47
2022-08-09T12:23:56.568Z,937.50
2022-08-09T12:24:40.574Z,947.48
2022-08-09T12:25:49.482Z,928.37
2022-08-09T12:26:40.673Z,918.16
2022-08-09T12:29:13.892Z,939.48
2022-08-09T12:29:14.710Z,948.15
2022-08-09T12:29:52.694Z,956.30
2022-08-09T12:30:41.234Z,983.06
2022-08-09T12:31:58.875Z,978.74
2022-08-09T12:32:41.451Z,970.91
2022-08-09T12:33:59.462Z,995.53
2022-08-09T12:34:41.783Z,1019.08
2022-08-09T12:35:42.843Z,997.01
2022-08-09T12:36:40.912Z,980.90
2022-08-09T12:37:50.741Z,963.90
2022-08-09T12:38:42.162Z,995.53
2022-08-09T12:39:41.319Z,1030.09
2022-08-09T12:40:41.421Z,1006.03
2022-08-09T12:41:41.510Z,996.27
2022-08-09T12:42:41.673Z,996.27